createdAt,value
2019-03-15T00:00:33.450Z,19.10
2019-03-15T00:03:56.961Z,12.80
2019-03-15T00:07:20.144Z,22.73
2019-03-15T00:10:43.424Z,24.90
2019-03-15T00:14:06.595Z,18.10
2019-03-15T00:17:29.665Z,19.40
2019-03-15T00:20:53.115Z,21.07
2019-03-15T00:24:16.292Z,16.73
2019-03-15T00:27:39.412Z,19.93
2019-03-15T00:31:02.658Z,11.13
2019-03-15T00:34:26.657Z,25.50
2019-03-15T00:37:49.885Z,13.70
2019-03-15T00:41:13.110Z,19.87
2019-03-15T00:44:36.412Z,16.97
2019-03-15T00:47:59.584Z,23.53
2019-03-15T00:51:22.830Z,21.17
2019-03-15T00:54:45.955Z,15.63
2019-03-15T00:58:09.101Z,22.70
2019-03-15T01:01:32.404Z,16.17
2019-03-15T01:04:55.581Z,15.27
2019-03-15T01:08:19.026Z,18.23
2019-03-15T01:11:45.362Z,21.40
2019-03-15T01:15:07.417Z,20.37
2019-03-15T01:18:30.582Z,13.03
2019-03-15T01:21:53.994Z,16.43
2019-03-15T01:25:18.533Z,17.60
2019-03-15T01:28:41.641Z,14.27
2019-03-15T01:32:04.795Z,20.27
2019-03-15T01:35:28.226Z,17.77
2019-03-15T01:38:51.544Z,12.17
2019-03-15T01:42:14.620Z,19.60
2019-03-15T01:45:37.778Z,19.47
2019-03-15T01:49:00.903Z,21.03
2019-03-15T01:52:24.437Z,16.67
2019-03-15T01:55:47.614Z,17.63
2019-03-15T01:59:11.398Z,18.00
2019-03-15T02:02:34.577Z,23.97
2019-03-15T02:05:58.134Z,14.93
2019-03-15T02:09:21.233Z,11.53
2019-03-15T02:12:44.475Z,13.73
2019-03-15T02:16:08.762Z,15.23
2019-03-15T02:19:32.106Z,13.60
2019-03-15T02:22:55.306Z,14.97
2019-03-15T02:26:18.368Z,11.93
2019-03-15T02:29:41.826Z,15.27
2019-03-15T02:33:06.034Z,19.03
2019-03-15T02:36:29.609Z,12.67
2019-03-15T02:39:52.865Z,15.60
2019-03-15T02:43:16.117Z,15.53
2019-03-15T02:46:39.261Z,16.67
2019-03-15T02:50:02.580Z,18.33
2019-03-15T02:53:25.992Z,16.63
2019-03-15T02:56:50.127Z,14.30
2019-03-15T03:00:13.984Z,11.40
2019-03-15T03:03:37.542Z,15.60
2019-03-15T03:07:00.834Z,15.70
2019-03-15T03:10:24.509Z,20.27
2019-03-15T03:13:47.675Z,8.37
2019-03-15T03:17:10.812Z,12.77
2019-03-15T03:20:33.915Z,10.67
2019-03-15T03:23:57.544Z,16.80
2019-03-15T03:27:20.976Z,21.70
2019-03-15T03:30:45.750Z,13.47
2019-03-15T03:34:09.202Z,10.83
2019-03-15T03:37:32.395Z,14.43
2019-03-15T03:40:56.432Z,16.80
2019-03-15T03:44:19.895Z,11.70
2019-03-15T03:47:43.513Z,13.60
2019-03-15T03:51:06.758Z,11.10
2019-03-15T03:54:30.505Z,9.87
2019-03-15T03:57:53.786Z,13.83
2019-03-15T04:01:16.914Z,19.27
2019-03-15T04:04:40.078Z,16.60
2019-03-15T04:08:03.232Z,8.37
2019-03-15T04:11:26.686Z,14.37
2019-03-15T04:14:50.073Z,11.97
2019-03-15T04:18:13.539Z,12.27
2019-03-15T04:21:36.972Z,15.73
2019-03-15T04:25:00.145Z,11.20
2019-03-15T04:28:23.446Z,11.23
2019-03-15T04:31:46.530Z,11.37
2019-03-15T04:35:09.766Z,9.43
2019-03-15T04:38:32.887Z,12.30
2019-03-15T04:41:56.323Z,9.20
2019-03-15T04:45:19.851Z,16.83
2019-03-15T04:48:43.530Z,12.20
2019-03-15T04:52:06.937Z,10.27
2019-03-15T04:55:30.073Z,11.57
2019-03-15T04:58:53.495Z,18.83
2019-03-15T05:02:17.046Z,19.53
2019-03-15T05:05:40.318Z,14.77
2019-03-15T05:09:04.562Z,16.17
2019-03-15T05:12:27.731Z,9.13
2019-03-15T05:15:50.884Z,14.83
2019-03-15T05:19:14.259Z,18.63
2019-03-15T05:22:37.383Z,14.67
2019-03-15T05:26:02.148Z,12.33
2019-03-15T05:29:25.358Z,19.30
2019-03-15T05:32:48.857Z,11.37
2019-03-15T05:36:12.078Z,14.80
2019-03-15T05:39:35.279Z,11.97
2019-03-15T05:42:58.464Z,16.03
2019-03-15T05:46:21.939Z,21.80
2019-03-15T05:49:45.179Z,17.60
2019-03-15T05:53:08.363Z,18.40
2019-03-15T05:56:31.816Z,22.53
2019-03-15T05:59:55.304Z,14.93
2019-03-15T06:03:18.566Z,21.17
2019-03-15T06:06:41.840Z,20.77
2019-03-15T06:10:05.948Z,27.53
2019-03-15T06:13:29.632Z,18.70
2019-03-15T06:16:53.129Z,15.13
2019-03-15T06:20:16.253Z,20.03
2019-03-15T06:23:39.345Z,27.63
2019-03-15T06:27:03.511Z,21.23
2019-03-15T06:30:31.821Z,16.00
2019-03-15T06:33:54.987Z,17.37
2019-03-15T06:37:18.462Z,22.00
2019-03-15T06:40:41.790Z,26.87
2019-03-15T06:44:04.976Z,14.33
2019-03-15T06:47:28.576Z,12.43
2019-03-15T06:50:51.769Z,25.13
2019-03-15T06:54:15.028Z,29.40
2019-03-15T06:57:39.101Z,23.90
2019-03-15T07:01:02.299Z,20.27
2019-03-15T07:04:25.560Z,20.60
2019-03-15T07:07:48.964Z,24.07
2019-03-15T07:11:12.276Z,16.13
2019-03-15T07:14:35.461Z,20.53
2019-03-15T07:17:58.822Z,23.17
2019-03-15T07:21:21.966Z,17.60
2019-03-15T07:24:45.104Z,15.43
2019-03-15T07:28:08.414Z,19.17
2019-03-15T07:31:31.677Z,15.87
2019-03-15T07:34:54.841Z,13.07
2019-03-15T07:38:18.144Z,16.87
2019-03-15T07:41:41.697Z,22.73
2019-03-15T07:45:05.181Z,13.43
2019-03-15T07:48:28.524Z,18.33
2019-03-15T07:51:51.868Z,21.77
2019-03-15T07:55:15.167Z,18.10
2019-03-15T07:58:39.373Z,11.17
2019-03-15T08:02:02.709Z,14.27
2019-03-15T08:05:25.905Z,15.67
2019-03-15T08:08:49.112Z,13.63
2019-03-15T08:12:12.565Z,12.23
2019-03-15T08:15:35.892Z,19.97
2019-03-15T08:18:59.013Z,14.90
2019-03-15T08:22:22.525Z,15.97
2019-03-15T08:25:45.909Z,16.30
2019-03-15T08:29:09.859Z,14.30
2019-03-15T08:32:33.290Z,15.10
2019-03-15T08:35:56.491Z,11.47
2019-03-15T08:39:20.164Z,15.23
2019-03-15T08:42:43.721Z,11.80
2019-03-15T08:46:06.980Z,14.93
2019-03-15T08:49:30.533Z,16.27
2019-03-15T08:52:54.206Z,15.20
2019-03-15T08:56:17.709Z,17.80
2019-03-15T08:59:53.776Z,15.80
2019-03-15T09:03:05.984Z,16.53
2019-03-15T09:06:29.180Z,10.00
2019-03-15T09:09:52.389Z,12.20
2019-03-15T09:13:15.530Z,14.67
2019-03-15T09:16:38.747Z,15.80
2019-03-15T09:20:01.970Z,12.13
2019-03-15T09:23:25.959Z,14.23
2019-03-15T09:26:49.096Z,12.87
2019-03-15T09:30:22.603Z,15.03
2019-03-15T09:33:37.431Z,14.23
2019-03-15T09:37:01.228Z,12.40
2019-03-15T09:40:25.859Z,12.67
2019-03-15T09:43:49.771Z,11.20
2019-03-15T09:47:12.919Z,11.83
2019-03-15T09:50:50.623Z,11.00
2019-03-15T09:54:08.769Z,11.00
2019-03-15T09:57:32.075Z,11.83
2019-03-15T10:00:55.446Z,13.03
2019-03-15T10:04:18.806Z,11.80
2019-03-15T10:07:43.635Z,12.83
2019-03-15T10:11:10.102Z,12.70
2019-03-15T10:14:33.315Z,12.73
2019-03-15T10:17:56.619Z,16.13
2019-03-15T10:21:20.053Z,19.37
2019-03-15T10:24:43.540Z,19.80
2019-03-15T10:28:09.082Z,21.23
2019-03-15T10:31:32.520Z,19.40
2019-03-15T10:34:55.978Z,15.67
2019-03-15T10:38:19.360Z,16.00
2019-03-15T10:41:42.496Z,16.73
2019-03-15T10:45:08.605Z,20.00
2019-03-15T10:48:31.830Z,25.30
2019-03-15T10:51:55.157Z,24.90
2019-03-15T10:55:20.632Z,24.40
2019-03-15T10:58:43.398Z,28.90
2019-03-15T11:02:06.897Z,25.93
2019-03-15T11:05:30.089Z,24.57
2019-03-15T11:08:53.196Z,32.77
2019-03-15T11:12:21.005Z,27.57
2019-03-15T11:15:44.183Z,24.87
2019-03-15T11:19:07.367Z,31.00
2019-03-15T11:22:30.939Z,30.57
2019-03-15T11:25:54.310Z,26.70
2019-03-15T11:29:17.596Z,38.73
2019-03-15T11:32:40.814Z,27.23
2019-03-15T11:36:04.210Z,36.37
2019-03-15T11:39:27.762Z,26.03
2019-03-15T11:42:51.184Z,29.17
2019-03-15T11:46:16.511Z,26.27
2019-03-15T11:49:39.524Z,25.07
2019-03-15T11:53:02.825Z,26.10
2019-03-15T11:56:27.250Z,27.00
2019-03-15T11:59:50.893Z,29.23
2019-03-15T12:03:14.040Z,29.93
2019-03-15T12:06:37.210Z,25.83
2019-03-15T12:10:00.467Z,22.77
2019-03-15T12:13:23.705Z,27.67
2019-03-15T12:16:46.898Z,20.83
2019-03-15T12:20:10.406Z,26.20
2019-03-15T12:23:33.580Z,26.53
2019-03-15T12:26:56.803Z,19.77
2019-03-15T12:30:20.219Z,17.30
2019-03-15T12:33:43.487Z,22.97
2019-03-15T12:37:06.637Z,18.70
2019-03-15T12:40:30.816Z,17.20
2019-03-15T12:43:54.125Z,20.12
2019-03-15T12:47:17.309Z,16.95
2019-03-15T12:50:40.402Z,14.58
2019-03-15T12:54:03.730Z,15.23
2019-03-15T12:57:27.191Z,11.88
2019-03-15T13:00:50.291Z,27.93
2019-03-15T13:04:13.779Z,14.23
2019-03-15T13:07:36.864Z,17.12
2019-03-15T13:11:01.488Z,12.20
2019-03-15T13:14:24.600Z,12.82
2019-03-15T13:17:47.690Z,19.67
2019-03-15T13:21:10.881Z,11.38
2019-03-15T13:24:34.092Z,15.40
2019-03-15T13:27:57.191Z,14.65
2019-03-15T13:31:20.345Z,12.47
2019-03-15T13:34:43.588Z,12.47
2019-03-15T13:38:06.751Z,13.83
2019-03-15T13:41:29.974Z,12.65
2019-03-15T13:44:53.155Z,11.22
2019-03-15T13:48:16.437Z,10.27
2019-03-15T13:51:39.611Z,9.23
2019-03-15T13:55:05.187Z,11.68
2019-03-15T13:58:28.554Z,15.78
2019-03-15T14:01:51.870Z,17.32
2019-03-15T14:05:15.409Z,8.90
2019-03-15T14:08:38.713Z,9.23
2019-03-15T14:12:02.153Z,10.82
2019-03-15T14:15:25.666Z,11.97
2019-03-15T14:18:48.967Z,8.25
2019-03-15T14:22:12.065Z,12.33
2019-03-15T14:25:35.341Z,9.05
2019-03-15T14:28:58.746Z,11.22
2019-03-15T14:32:22.879Z,11.80
2019-03-15T14:35:46.088Z,10.55
2019-03-15T14:39:10.470Z,10.90
2019-03-15T14:42:34.013Z,5.70
2019-03-15T14:45:57.438Z,4.97
2019-03-15T14:49:20.602Z,4.25
2019-03-15T14:52:45.059Z,14.13
2019-03-15T14:56:08.107Z,8.77
2019-03-15T14:59:31.292Z,9.90
2019-03-15T15:02:54.683Z,10.40
2019-03-15T15:06:17.831Z,9.83
2019-03-15T15:09:41.072Z,11.73
2019-03-15T15:13:04.148Z,6.17
2019-03-15T15:16:27.508Z,9.30
2019-03-15T15:19:50.725Z,4.63
2019-03-15T15:23:14.241Z,10.00
2019-03-15T15:26:37.466Z,11.40
2019-03-15T15:30:00.612Z,12.95
2019-03-15T15:33:23.852Z,6.17
2019-03-15T15:36:47.117Z,8.13
2019-03-15T15:40:10.732Z,10.47
2019-03-15T15:43:34.183Z,13.70
2019-03-15T15:46:58.630Z,15.33
2019-03-15T15:50:21.775Z,11.80
2019-03-15T15:53:45.017Z,16.30
2019-03-15T15:57:08.186Z,11.43
2019-03-15T16:00:31.417Z,12.60
2019-03-15T16:23:59.579Z,19.67
2019-03-15T16:27:23.297Z,18.17
2019-03-15T16:30:46.466Z,18.13
2019-03-15T16:34:09.658Z,19.17
2019-03-15T16:37:32.852Z,17.47
2019-03-15T16:40:55.999Z,16.53
2019-03-15T16:44:19.362Z,15.97
2019-03-15T16:47:42.813Z,15.40
2019-03-15T16:51:18.730Z,23.83
2019-03-15T16:54:31.004Z,5.40
2019-03-15T16:57:54.482Z,8.13
2019-03-15T17:01:17.644Z,13.23
2019-03-15T17:04:40.861Z,6.30
2019-03-15T17:08:03.943Z,6.97
2019-03-15T17:11:27.334Z,6.83
2019-03-15T17:14:50.610Z,5.37
2019-03-15T17:18:19.605Z,4.93
2019-03-15T17:21:44.044Z,7.03
2019-03-15T17:25:08.124Z,6.07
2019-03-15T17:28:31.532Z,4.97
2019-03-15T17:31:54.831Z,8.43
2019-03-15T17:35:18.038Z,9.13
2019-03-15T17:38:41.181Z,7.40
2019-03-15T17:42:04.350Z,6.67
2019-03-15T17:45:27.829Z,6.63
2019-03-15T17:48:51.053Z,6.43
2019-03-15T17:52:14.526Z,7.10
2019-03-15T17:55:37.639Z,9.30
2019-03-15T17:59:11.803Z,8.80
2019-03-15T18:02:26.210Z,6.87
2019-03-15T18:05:49.315Z,12.70
2019-03-15T18:09:12.703Z,13.43
2019-03-15T18:12:36.001Z,9.63
2019-03-15T18:15:59.301Z,8.47
2019-03-15T18:19:22.745Z,8.00
2019-03-15T18:22:46.277Z,14.80
2019-03-15T18:26:09.632Z,16.73
2019-03-15T18:29:33.052Z,14.90
2019-03-15T18:32:56.855Z,15.23
2019-03-15T18:36:20.483Z,14.67
2019-03-15T18:39:46.121Z,8.87
2019-03-15T18:43:09.549Z,13.67
2019-03-15T18:46:33.015Z,10.87
2019-03-15T18:49:56.540Z,7.50
2019-03-15T18:53:19.789Z,12.80
2019-03-15T18:56:45.548Z,12.17
2019-03-15T19:00:15.297Z,14.13
2019-03-15T19:03:39.030Z,13.47
2019-03-15T19:07:04.735Z,13.27
2019-03-15T19:10:28.241Z,12.53
2019-03-15T19:13:51.531Z,10.87
2019-03-15T19:17:15.007Z,16.67
2019-03-15T19:20:38.603Z,15.40
2019-03-15T19:24:05.624Z,15.07
2019-03-15T19:27:28.908Z,18.00
2019-03-15T19:30:54.509Z,13.73
2019-03-15T19:34:17.955Z,17.57
2019-03-15T19:37:41.256Z,16.80
2019-03-15T19:41:06.333Z,12.53
2019-03-15T19:44:30.922Z,15.30
2019-03-15T19:47:54.784Z,13.80
2019-03-15T19:51:17.930Z,15.40
2019-03-15T19:54:41.544Z,11.53
2019-03-15T19:58:04.850Z,13.93
2019-03-15T20:01:29.168Z,19.50
2019-03-15T20:04:52.465Z,27.87
2019-03-15T20:08:15.993Z,12.10
2019-03-15T20:11:39.731Z,13.90
2019-03-15T20:18:40.670Z,23.23
2019-03-15T20:22:04.112Z,18.83
2019-03-15T20:25:27.548Z,18.93
2019-03-15T20:32:57.334Z,11.90
2019-03-15T20:36:20.580Z,14.00
2019-03-15T20:39:44.185Z,15.37
2019-03-15T20:43:07.277Z,20.80
2019-03-15T20:46:35.730Z,18.20
2019-03-15T20:49:55.954Z,12.53
2019-03-15T20:53:19.386Z,15.47
2019-03-15T20:56:44.512Z,19.00
2019-03-15T21:00:10.659Z,17.13
2019-03-15T21:03:34.703Z,17.10
2019-03-15T21:06:58.227Z,9.43
2019-03-15T21:10:21.398Z,17.70
2019-03-15T21:13:45.176Z,11.50
2019-03-15T21:17:13.161Z,17.30
2019-03-15T21:20:36.337Z,22.67
2019-03-15T21:23:59.523Z,21.60
2019-03-15T21:27:22.755Z,12.63
2019-03-15T21:30:48.593Z,15.63
2019-03-15T21:34:11.940Z,23.20
2019-03-15T21:37:35.832Z,16.07
2019-03-15T21:40:59.001Z,14.20
2019-03-15T21:44:22.163Z,10.40
2019-03-15T21:47:45.654Z,13.67
2019-03-15T21:51:08.886Z,17.83
2019-03-15T21:54:32.720Z,15.97
2019-03-15T21:57:56.226Z,12.30
2019-03-15T22:01:19.631Z,17.10
2019-03-15T22:04:43.329Z,17.80
2019-03-15T22:08:06.851Z,17.47
2019-03-15T22:11:30.220Z,13.47
2019-03-15T22:14:54.159Z,24.73
2019-03-15T22:18:17.361Z,15.63
2019-03-15T22:21:40.681Z,12.93
2019-03-15T22:25:03.944Z,14.63
2019-03-15T22:28:27.104Z,21.43
2019-03-15T22:31:50.643Z,22.27
2019-03-15T22:35:13.832Z,22.87
2019-03-15T22:38:36.944Z,17.87
2019-03-15T22:42:00.182Z,13.63
2019-03-15T22:45:23.373Z,19.23
2019-03-15T22:48:46.846Z,19.60
2019-03-15T22:52:09.973Z,13.50
2019-03-15T22:55:33.468Z,16.13
2019-03-15T22:58:56.970Z,13.70
2019-03-15T23:02:20.204Z,22.43
2019-03-15T23:05:43.540Z,20.47
2019-03-15T23:09:07.157Z,20.47
2019-03-15T23:12:30.363Z,21.97
2019-03-15T23:15:53.487Z,18.97
2019-03-15T23:19:16.792Z,15.53
2019-03-15T23:22:41.082Z,17.83
2019-03-15T23:26:04.289Z,12.00
2019-03-15T23:29:27.410Z,16.47
2019-03-15T23:32:50.649Z,14.10
2019-03-15T23:36:13.749Z,17.93
2019-03-15T23:39:36.912Z,19.63
2019-03-15T23:42:59.993Z,13.23
2019-03-15T23:46:23.109Z,14.60
2019-03-15T23:49:46.188Z,22.20
2019-03-15T23:53:09.461Z,15.37
2019-03-15T23:56:32.565Z,20.23
2019-03-15T23:59:55.706Z,19.80
